Time;durP1;ratioP1;P1;durP2;ratioP2;P2;SDS_P1;SDS_P2;PMS_P1;PMS_P2;Temp;Humidity;BMP_temperature;BMP_pressure;BME280_temperature;BME280_humidity;BME280_pressure;Samples;Min_cycle;Max_cycle;Signal;HPM_P1;HPM_P2
2023/10/30 00:00:08;;;;;;;1.40;1.30;;;17.00;71.00;;;;;;6115830;23;20618;-87
2023/10/30 00:02:37;;;;;;;1.87;1.10;;;17.00;70.90;;;;;;6115979;23;20243;-84
2023/10/30 00:05:07;;;;;;;0.40;0.40;;;17.00;70.90;;;;;;6117162;23;20591;-86
2023/10/30 00:07:35;;;;;;;2.63;1.07;;;16.90;70.90;;;;;;6118383;23;20201;-84
2023/10/30 00:10:06;;;;;;;1.07;1.00;;;16.90;70.90;;;;;;6122021;23;20503;-85
2023/10/30 00:12:35;;;;;;;10.60;1.43;;;16.90;70.90;;;;;;6122340;23;20185;-87
2023/10/30 00:15:06;;;;;;;1.17;0.70;;;16.90;70.90;;;;;;6121186;23;20173;-86
2023/10/30 00:17:35;;;;;;;0.83;0.80;;;16.90;71.00;;;;;;6120944;23;20252;-86
2023/10/30 00:20:06;;;;;;;0.67;0.67;;;16.90;71.00;;;;;;6117018;23;20256;-85
2023/10/30 00:22:35;;;;;;;0.70;0.70;;;16.80;70.90;;;;;;6117149;23;20193;-86
2023/10/30 00:25:06;;;;;;;1.13;1.03;;;16.80;70.90;;;;;;6118075;23;20182;-84
2023/10/30 00:27:37;;;;;;;1.27;1.10;;;16.80;71.10;;;;;;6117458;23;20208;-86
2023/10/30 00:30:07;;;;;;;0.83;0.83;;;16.70;71.00;;;;;;6116034;23;20181;-85
2023/10/30 00:32:37;;;;;;;1.33;1.03;;;16.70;71.20;;;;;;6115458;23;20176;-85
2023/10/30 00:35:06;;;;;;;0.90;0.90;;;16.70;71.10;;;;;;6117014;23;20601;-87
2023/10/30 00:37:35;;;;;;;1.90;1.47;;;16.70;71.20;;;;;;6114461;23;20169;-85
2023/10/30 00:40:04;;;;;;;1.47;1.10;;;16.70;71.20;;;;;;6114470;23;20174;-87
2023/10/30 00:42:33;;;;;;;1.17;1.00;;;16.60;71.30;;;;;;6115555;23;20251;-85
2023/10/30 00:45:05;;;;;;;2.70;1.27;;;16.60;71.60;;;;;;6114986;23;20252;-84
2023/10/30 00:47:38;;;;;;;6.00;1.80;;;16.60;71.60;;;;;;6114580;23;20641;-85
2023/10/30 00:50:08;;;;;;;0.93;0.73;;;16.60;71.90;;;;;;6117409;23;20173;-85
2023/10/30 00:52:38;;;;;;;2.33;1.80;;;16.60;72.10;;;;;;6116441;23;20173;-87
2023/10/30 00:55:07;;;;;;;0.60;0.60;;;16.50;72.10;;;;;;6116061;23;20175;-83
2023/10/30 00:57:37;;;;;;;7.73;1.50;;;16.50;71.90;;;;;;6117348;23;20216;-85
2023/10/30 01:00:09;;;;;;;0.80;0.80;;;16.50;71.90;;;;;;6115862;23;20191;-85
2023/10/30 01:02:39;;;;;;;0.83;0.83;;;16.50;72.10;;;;;;6114968;23;20169;-84
2023/10/30 01:05:08;;;;;;;1.00;0.83;;;16.50;72.70;;;;;;6116966;23;20902;-85
2023/10/30 01:07:38;;;;;;;1.13;0.87;;;16.40;72.80;;;;;;6117870;23;20193;-85
2023/10/30 01:10:07;;;;;;;1.13;1.03;;;16.40;72.70;;;;;;6117077;23;20174;-86
2023/10/30 01:12:35;;;;;;;0.80;0.67;;;16.40;72.70;;;;;;6115840;23;20211;-85
2023/10/30 01:15:05;;;;;;;9.33;3.17;;;16.40;72.60;;;;;;6115229;23;20256;-85
2023/10/30 01:17:35;;;;;;;0.63;0.60;;;16.40;73.00;;;;;;6115521;23;20173;-85
2023/10/30 01:20:04;;;;;;;3.00;2.00;;;16.40;73.10;;;;;;6116045;23;20808;-86
2023/10/30 01:22:32;;;;;;;1.90;1.37;;;16.30;72.90;;;;;;6117634;23;20198;-85
2023/10/30 01:25:01;;;;;;;2.03;0.90;;;16.30;72.80;;;;;;6114882;23;20220;-86
2023/10/30 01:27:30;;;;;;;0.87;0.80;;;16.30;73.10;;;;;;6113920;23;20193;-85
2023/10/30 01:29:59;;;;;;;1.47;0.80;;;16.20;73.60;;;;;;6114972;23;20627;-85
2023/10/30 01:32:27;;;;;;;0.90;0.50;;;16.20;73.40;;;;;;6115563;23;20598;-85
2023/10/30 01:34:57;;;;;;;4.00;1.97;;;16.20;73.50;;;;;;6132370;23;20203;-86
2023/10/30 01:37:26;;;;;;;1.30;1.20;;;16.20;73.60;;;;;;6177825;23;20168;-86
2023/10/30 01:39:55;;;;;;;2.03;1.40;;;16.20;73.60;;;;;;6176509;23;20198;-86
2023/10/30 01:42:24;;;;;;;2.30;2.10;;;16.10;73.60;;;;;;6176236;23;20192;-86
2023/10/30 01:44:59;;;;;;;4.47;0.97;;;16.10;74.40;;;;;;6176086;23;20622;-85
2023/10/30 01:47:28;;;;;;;1.93;1.23;;;16.10;74.10;;;;;;6177228;23;20187;-87
2023/10/30 01:49:59;;;;;;;2.33;2.13;;;16.10;74.10;;;;;;6177760;23;20178;-87
2023/10/30 01:52:30;;;;;;;0.63;0.63;;;16.10;74.00;;;;;;6179359;23;20168;-86
2023/10/30 01:54:59;;;;;;;0.77;0.77;;;16.10;73.90;;;;;;6177324;23;20234;-88
2023/10/30 01:57:29;;;;;;;1.20;1.10;;;16.10;74.00;;;;;;6181022;23;20171;-87
2023/10/30 02:00:00;;;;;;;2.60;1.00;;;16.10;74.20;;;;;;6179279;23;20226;-86
2023/10/30 02:02:32;;;;;;;2.60;1.33;;;16.10;74.30;;;;;;6177551;23;20559;-85
2023/10/30 02:05:05;;;;;;;2.70;1.33;;;16.20;74.30;;;;;;6179568;23;20179;-87
2023/10/30 02:07:34;;;;;;;0.70;0.70;;;16.20;74.30;;;;;;6179124;23;20191;-86
2023/10/30 02:10:02;;;;;;;3.20;1.37;;;16.20;74.30;;;;;;6179993;23;20175;-86
2023/10/30 02:12:33;;;;;;;3.63;2.57;;;16.20;74.30;;;;;;6181172;23;20206;-86
2023/10/30 02:15:03;;;;;;;1.23;1.13;;;16.20;74.30;;;;;;6180586;23;20541;-87
2023/10/30 02:17:32;;;;;;;1.63;1.13;;;16.10;74.20;;;;;;6180154;23;20194;-85
2023/10/30 02:20:02;;;;;;;2.07;1.27;;;16.10;74.70;;;;;;6178701;23;20247;-85
2023/10/30 02:22:31;;;;;;;3.40;1.73;;;16.10;74.70;;;;;;6178773;23;20214;-86
2023/10/30 02:25:02;;;;;;;1.63;1.37;;;16.10;74.70;;;;;;6180083;23;20163;-88
2023/10/30 02:27:32;;;;;;;0.60;0.60;;;16.00;74.60;;;;;;6179876;23;20204;-85
2023/10/30 02:30:00;;;;;;;4.63;1.70;;;16.00;74.50;;;;;;6176719;23;20570;-86
2023/10/30 02:32:30;;;;;;;3.20;1.27;;;16.00;74.70;;;;;;6179112;23;20241;-86
2023/10/30 02:35:02;;;;;;;1.90;1.33;;;15.90;74.80;;;;;;6177943;23;20172;-84
2023/10/30 02:37:30;;;;;;;2.37;1.90;;;15.90;74.90;;;;;;6178285;23;20168;-86
2023/10/30 02:39:59;;;;;;;3.40;1.43;;;15.90;75.10;;;;;;6178957;23;20168;-84
2023/10/30 02:42:28;;;;;;;1.93;1.70;;;15.80;75.00;;;;;;6180574;23;20164;-85
2023/10/30 02:44:58;;;;;;;1.30;1.30;;;15.80;74.90;;;;;;6178162;23;20172;-85
2023/10/30 02:47:28;;;;;;;3.43;2.17;;;15.80;75.00;;;;;;6180674;23;20167;-85
2023/10/30 02:49:57;;;;;;;0.90;0.90;;;15.80;75.00;;;;;;6178643;23;20175;-85
2023/10/30 02:52:27;;;;;;;2.93;1.80;;;15.70;75.00;;;;;;6178616;23;20167;-87
2023/10/30 02:54:55;;;;;;;1.27;1.17;;;15.70;75.10;;;;;;6177858;23;20178;-87
2023/10/30 02:57:24;;;;;;;2.03;1.00;;;15.70;75.10;;;;;;6177782;23;20182;-86
2023/10/30 02:59:52;;;;;;;0.50;0.50;;;15.70;75.10;;;;;;6178298;23;20174;-86
2023/10/30 03:02:22;;;;;;;2.33;1.37;;;15.70;75.00;;;;;;6179426;23;20233;-85
2023/10/30 03:04:50;;;;;;;5.77;1.90;;;15.70;75.10;;;;;;6177737;23;20184;-86
2023/10/30 03:07:21;;;;;;;2.00;1.37;;;15.60;75.10;;;;;;6179456;23;20466;-84
2023/10/30 03:09:51;;;;;;;8.63;1.60;;;15.60;75.20;;;;;;6177380;23;20676;-87
2023/10/30 03:12:19;;;;;;;8.87;1.50;;;15.60;75.20;;;;;;6178703;23;20498;-85
2023/10/30 03:14:48;;;;;;;1.90;1.27;;;15.60;75.20;;;;;;6179020;23;20609;-84
2023/10/30 03:17:16;;;;;;;2.20;1.80;;;15.60;75.20;;;;;;6179939;23;20203;-85
2023/10/30 03:19:46;;;;;;;2.57;1.47;;;15.60;75.20;;;;;;6175677;23;20175;-84
2023/10/30 03:22:16;;;;;;;0.87;0.87;;;15.50;75.30;;;;;;6179065;23;20598;-87
2023/10/30 03:24:45;;;;;;;2.30;1.77;;;15.50;75.70;;;;;;6177875;23;20521;-85
2023/10/30 03:27:14;;;;;;;3.30;1.23;;;15.50;75.50;;;;;;6179320;23;20263;-86
2023/10/30 03:29:42;;;;;;;2.23;1.17;;;15.50;75.40;;;;;;6178087;23;20218;-85
2023/10/30 03:32:12;;;;;;;1.30;1.07;;;15.50;75.40;;;;;;6178694;23;20613;-86
2023/10/30 03:34:41;;;;;;;1.23;1.13;;;15.50;75.40;;;;;;6177905;23;20179;-85
2023/10/30 03:37:11;;;;;;;1.27;1.17;;;15.40;75.30;;;;;;6180194;23;20653;-86
2023/10/30 03:39:40;;;;;;;1.73;1.63;;;15.50;75.50;;;;;;6177536;23;20503;-86
2023/10/30 03:42:09;;;;;;;1.03;0.97;;;15.50;75.40;;;;;;6177187;23;20164;-87
2023/10/30 03:44:37;;;;;;;3.80;1.57;;;15.50;75.40;;;;;;6178900;23;20164;-87
2023/10/30 03:47:06;;;;;;;1.30;1.20;;;15.50;75.30;;;;;;6178162;23;20280;-86
2023/10/30 03:49:37;;;;;;;1.03;0.93;;;15.50;75.40;;;;;;6178942;23;20906;-85
2023/10/30 03:52:05;;;;;;;1.33;1.23;;;15.50;75.20;;;;;;6177433;23;20168;-86
2023/10/30 03:54:35;;;;;;;1.13;0.90;;;15.50;75.10;;;;;;6179043;23;20170;-86
2023/10/30 03:57:04;;;;;;;2.13;1.23;;;15.60;75.10;;;;;;6178205;23;20172;-87
2023/10/30 03:59:33;;;;;;;2.83;1.13;;;15.60;75.10;;;;;;6179584;23;20171;-87
2023/10/30 04:02:02;;;;;;;3.20;1.40;;;15.60;75.00;;;;;;6177786;23;20164;-86
2023/10/30 04:04:30;;;;;;;1.83;1.67;;;15.60;74.90;;;;;;6177102;23;20167;-86
2023/10/30 04:06:58;;;;;;;2.87;1.43;;;15.60;75.00;;;;;;6178293;23;20507;-87
2023/10/30 04:09:28;;;;;;;1.87;1.77;;;15.60;75.00;;;;;;6177947;23;20944;-87
2023/10/30 04:12:02;;;;;;;0.90;0.87;;;15.60;75.80;;;;;;6181351;23;20219;-87
2023/10/30 04:14:32;;;;;;;1.60;1.50;;;15.60;75.10;;;;;;6179819;23;20172;-89
2023/10/30 04:17:02;;;;;;;2.10;1.50;;;15.50;75.10;;;;;;6178522;23;20254;-85
2023/10/30 04:19:33;;;;;;;4.70;1.70;;;15.50;75.10;;;;;;6180244;23;20175;-86
2023/10/30 04:22:02;;;;;;;1.97;1.47;;;15.50;75.60;;;;;;6179334;23;20202;-85
2023/10/30 04:24:32;;;;;;;5.47;2.27;;;15.50;75.10;;;;;;6181063;23;20168;-86
2023/10/30 04:27:03;;;;;;;4.53;1.60;;;15.50;75.20;;;;;;6178047;23;20227;-88
2023/10/30 04:29:32;;;;;;;14.47;2.37;;;15.50;75.30;;;;;;6178504;23;20194;-87
2023/10/30 04:32:00;;;;;;;2.77;1.80;;;15.50;75.20;;;;;;6179929;23;20488;-85
2023/10/30 04:34:29;;;;;;;1.10;1.10;;;15.50;75.20;;;;;;6179276;23;20215;-86
2023/10/30 04:36:58;;;;;;;2.00;1.80;;;15.40;75.20;;;;;;6178339;23;20171;-85
2023/10/30 04:39:28;;;;;;;4.23;2.10;;;15.40;75.20;;;;;;6177961;23;20728;-86
2023/10/30 04:41:57;;;;;;;2.50;1.07;;;15.40;75.40;;;;;;6178046;23;20172;-86
2023/10/30 04:44:27;;;;;;;1.03;1.00;;;15.40;75.50;;;;;;6176828;23;20485;-86
2023/10/30 04:46:56;;;;;;;2.90;2.33;;;15.30;75.40;;;;;;6178589;23;20497;-86
2023/10/30 04:49:24;;;;;;;3.33;1.20;;;15.30;75.40;;;;;;6176381;23;20188;-86
2023/10/30 04:51:53;;;;;;;2.43;1.60;;;15.30;75.50;;;;;;6177220;23;20540;-85
2023/10/30 04:54:24;;;;;;;3.00;1.43;;;15.20;75.50;;;;;;6177351;23;20486;-84
2023/10/30 04:56:52;;;;;;;1.33;1.23;;;15.20;75.60;;;;;;6174846;23;20191;-85
2023/10/30 04:59:21;;;;;;;1.27;1.17;;;15.20;75.80;;;;;;6177398;23;20170;-86
2023/10/30 05:01:51;;;;;;;2.40;1.63;;;15.20;75.80;;;;;;6173321;23;20400;-85
2023/10/30 05:04:19;;;;;;;1.30;1.20;;;15.20;76.10;;;;;;6178301;23;20195;-86
2023/10/30 05:06:48;;;;;;;2.73;2.00;;;15.10;76.10;;;;;;6176461;23;20172;-86
2023/10/30 05:09:17;;;;;;;0.90;0.83;;;15.10;76.30;;;;;;6178639;23;20183;-86
2023/10/30 05:11:45;;;;;;;5.03;1.47;;;15.10;76.30;;;;;;6180250;23;20164;-85
2023/10/30 05:14:14;;;;;;;1.53;1.27;;;15.10;76.60;;;;;;6178358;23;20167;-83
2023/10/30 05:16:42;;;;;;;2.50;1.30;;;15.10;76.40;;;;;;6174110;23;20168;-84
2023/10/30 05:19:13;;;;;;;1.70;1.17;;;15.10;76.50;;;;;;6177932;23;20171;-84
2023/10/30 05:21:41;;;;;;;12.30;1.97;;;15.00;76.60;;;;;;6176914;23;20266;-84
2023/10/30 05:24:10;;;;;;;1.20;1.10;;;15.00;76.70;;;;;;6175336;23;20171;-84
2023/10/30 05:26:40;;;;;;;1.63;1.53;;;15.10;76.80;;;;;;6178380;23;20552;-85
2023/10/30 05:29:09;;;;;;;2.90;2.23;;;15.00;77.60;;;;;;6181946;23;20274;-86
2023/10/30 05:31:38;;;;;;;4.50;2.17;;;15.00;76.90;;;;;;6177562;23;20171;-86
2023/10/30 05:34:08;;;;;;;2.80;2.17;;;15.00;77.20;;;;;;6179954;23;20178;-85
2023/10/30 05:36:39;;;;;;;4.27;1.70;;;15.00;77.30;;;;;;6180269;23;20182;-85
2023/10/30 05:39:08;;;;;;;3.53;2.53;;;15.00;77.30;;;;;;6178877;23;20163;-85
2023/10/30 05:41:38;;;;;;;1.37;1.27;;;15.10;77.50;;;;;;6178002;23;20919;-87
2023/10/30 05:44:09;;;;;;;1.67;1.53;;;15.10;77.40;;;;;;6177509;23;20168;-84
2023/10/30 05:47:31;;;;;;;1.40;1.07;;;15.10;77.30;;;;;;6179448;23;20544;-85
2023/10/30 05:54:07;;;;;;;1.43;1.00;;;15.20;77.20;;;;;;6208150;22;20211;-85
2023/10/30 05:56:37;;;;;;;0.77;0.77;;;15.30;77.50;;;;;;6211297;23;20242;-85
2023/10/30 05:59:06;;;;;;;2.03;1.47;;;15.30;77.50;;;;;;6179946;23;20192;-84
2023/10/30 06:01:36;;;;;;;1.87;1.43;;;15.40;77.70;;;;;;6182161;23;20164;-86
2023/10/30 06:04:06;;;;;;;2.80;1.97;;;15.40;78.00;;;;;;6181437;23;20195;-88
2023/10/30 06:06:35;;;;;;;7.43;3.60;;;15.40;79.10;;;;;;6178381;23;20179;-86
2023/10/30 06:09:06;;;;;;;1.90;1.70;;;15.50;79.40;;;;;;6182943;23;20598;-85
2023/10/30 06:11:35;;;;;;;2.10;1.00;;;15.50;79.30;;;;;;6179674;23;20172;-85
2023/10/30 06:14:06;;;;;;;1.23;1.17;;;15.60;79.40;;;;;;6177547;23;20242;-86
2023/10/30 06:16:40;;;;;;;4.23;1.90;;;15.60;79.20;;;;;;6184467;23;20709;-85
2023/10/30 06:19:09;;;;;;;1.70;0.97;;;15.70;79.20;;;;;;6184474;23;20167;-85
2023/10/30 06:21:39;;;;;;;1.47;0.90;;;15.70;79.10;;;;;;6155423;23;20618;-88
2023/10/30 06:24:09;;;;;;;3.03;1.33;;;15.80;79.10;;;;;;6179397;23;20172;-86
2023/10/30 06:26:40;;;;;;;1.10;1.03;;;15.90;78.90;;;;;;6181903;23;20259;-87
2023/10/30 06:29:11;;;;;;;1.40;1.20;;;16.00;78.90;;;;;;6184007;23;20172;-86
2023/10/30 06:31:41;;;;;;;1.13;0.97;;;16.00;79.40;;;;;;6182774;23;20534;-87
2023/10/30 06:34:10;;;;;;;2.87;1.10;;;16.10;79.50;;;;;;6179402;23;20393;-86
2023/10/30 06:36:40;;;;;;;0.50;0.50;;;16.10;79.80;;;;;;6180826;23;20429;-85
2023/10/30 06:39:13;;;;;;;0.93;0.90;;;16.20;79.70;;;;;;6178949;23;20637;-86
2023/10/30 06:41:42;;;;;;;0.60;0.60;;;16.30;79.60;;;;;;6180674;23;20616;-86
2023/10/30 06:44:12;;;;;;;1.57;1.43;;;16.40;79.50;;;;;;6182564;23;20172;-86
2023/10/30 06:46:41;;;;;;;0.87;0.87;;;16.40;79.30;;;;;;6181484;23;20178;-86
2023/10/30 06:49:12;;;;;;;1.30;1.13;;;16.50;79.10;;;;;;6182547;23;20172;-88
2023/10/30 06:51:41;;;;;;;2.27;1.13;;;16.60;79.00;;;;;;6177190;23;20203;-85
2023/10/30 06:54:11;;;;;;;5.43;1.90;;;16.70;78.80;;;;;;6180513;23;20629;-87
2023/10/30 06:56:40;;;;;;;0.50;0.50;;;16.80;78.70;;;;;;6179512;23;20170;-87
2023/10/30 06:59:14;;;;;;;0.57;0.57;;;16.90;78.60;;;;;;6180921;23;20207;-87
2023/10/30 07:01:49;;;;;;;2.47;1.30;;;16.90;78.50;;;;;;6180590;23;20247;-87
2023/10/30 07:04:24;;;;;;;1.30;0.90;;;17.00;78.40;;;;;;6181636;23;20198;-90
2023/10/30 07:06:55;;;;;;;1.47;1.23;;;17.10;78.40;;;;;;6182320;23;20172;-88
2023/10/30 07:09:25;;;;;;;1.70;1.47;;;17.20;78.30;;;;;;6180765;23;20174;-86
2023/10/30 07:12:03;;;;;;;0.50;0.50;;;17.30;78.20;;;;;;6183851;23;20199;-84
2023/10/30 07:14:39;;;;;;;0.73;0.73;;;17.40;78.00;;;;;;6181783;23;20163;-86
2023/10/30 07:17:17;;;;;;;0.50;0.50;;;17.50;78.00;;;;;;6182049;23;20163;-85
2023/10/30 07:19:52;;;;;;;2.23;1.40;;;17.60;77.80;;;;;;6182441;23;20247;-88
2023/10/30 07:22:23;;;;;;;0.40;0.40;;;17.70;77.90;;;;;;6182943;23;20168;-87
2023/10/30 07:24:54;;;;;;;0.40;0.40;;;17.80;77.70;;;;;;6183003;23;20163;-86
2023/10/30 07:27:26;;;;;;;2.43;0.87;;;17.90;77.70;;;;;;6184503;23;20200;-88
2023/10/30 07:29:59;;;;;;;1.40;1.30;;;18.00;78.00;;;;;;6182077;23;20572;-89
2023/10/30 07:32:29;;;;;;;2.20;1.47;;;18.20;78.00;;;;;;6179371;23;20171;-85
2023/10/30 07:34:58;;;;;;;0.60;0.60;;;18.30;77.90;;;;;;6181846;23;20633;-86
2023/10/30 07:37:27;;;;;;;1.10;0.97;;;18.30;77.70;;;;;;6176582;23;20256;-85
2023/10/30 07:39:57;;;;;;;1.90;0.83;;;18.50;77.70;;;;;;6180392;23;20168;-85
2023/10/30 07:42:26;;;;;;;0.60;0.60;;;18.60;77.50;;;;;;6189105;23;20167;-87
2023/10/30 07:44:57;;;;;;;0.70;0.70;;;18.70;77.50;;;;;;6184271;23;20215;-86
2023/10/30 07:47:26;;;;;;;1.37;0.97;;;18.80;77.40;;;;;;6186117;23;20195;-85
2023/10/30 07:50:11;;;;;;;1.70;1.23;;;18.90;77.30;;;;;;6191090;23;20187;-85
2023/10/30 07:52:40;;;;;;;1.87;0.70;;;19.00;77.20;;;;;;6183053;23;20199;-84
2023/10/30 07:55:11;;;;;;;1.23;0.83;;;19.10;77.00;;;;;;6180624;23;20164;-84
2023/10/30 07:57:39;;;;;;;1.37;0.73;;;19.20;76.90;;;;;;6179036;23;20358;-85
2023/10/30 08:00:12;;;;;;;0.82;0.82;;;19.30;76.70;;;;;;6181184;23;20164;-88
2023/10/30 08:02:41;;;;;;;1.85;1.08;;;19.50;76.60;;;;;;6181819;23;20168;-90
2023/10/30 08:05:13;;;;;;;1.67;1.48;;;19.50;76.30;;;;;;6182253;23;20164;-87
2023/10/30 08:07:46;;;;;;;1.60;0.57;;;19.70;76.00;;;;;;6181053;23;20163;-87
2023/10/30 08:10:15;;;;;;;1.70;1.35;;;19.70;75.70;;;;;;6178776;23;20164;-86
2023/10/30 08:12:44;;;;;;;1.48;1.00;;;19.90;75.80;;;;;;6180553;23;20575;-87
2023/10/30 08:15:17;;;;;;;2.15;0.95;;;19.90;75.50;;;;;;6177922;23;20247;-85
2023/10/30 08:17:47;;;;;;;1.95;1.58;;;20.10;75.40;;;;;;6177869;23;20164;-84
2023/10/30 08:23:36;;;;;;;2.15;1.85;;;20.30;74.90;;;;;;6195008;23;20238;-85
2023/10/30 08:26:06;;;;;;;3.13;1.08;;;20.40;74.70;;;;;;6213142;23;20247;-86
2023/10/30 08:28:35;;;;;;;2.47;1.35;;;20.50;74.60;;;;;;6208582;23;20175;-86
2023/10/30 08:31:08;;;;;;;1.75;0.90;;;20.50;74.30;;;;;;6211247;23;20194;-84
2023/10/30 08:33:38;;;;;;;0.73;0.73;;;20.60;74.20;;;;;;6210262;23;20222;-85
2023/10/30 08:36:07;;;;;;;11.23;0.98;;;20.70;73.70;;;;;;6210838;23;20179;-84
2023/10/30 08:38:40;;;;;;;0.98;0.98;;;20.80;73.60;;;;;;6210126;23;20688;-86
2023/10/30 08:41:16;;;;;;;2.72;0.98;;;20.90;73.20;;;;;;6210223;23;20624;-86
2023/10/30 08:43:44;;;;;;;2.05;1.60;;;21.00;71.90;;;;;;6208508;23;20169;-84
2023/10/30 08:46:18;;;;;;;2.17;1.95;;;21.10;71.00;;;;;;6210900;23;20241;-85
2023/10/30 08:48:47;;;;;;;1.75;0.90;;;21.20;71.60;;;;;;6208976;23;20797;-85
2023/10/30 08:51:16;;;;;;;1.45;0.80;;;21.20;71.30;;;;;;6211223;23;20191;-86
2023/10/30 08:53:44;;;;;;;0.88;0.70;;;21.30;70.50;;;;;;6211578;23;20178;-85
2023/10/30 08:56:14;;;;;;;1.17;1.08;;;21.40;70.30;;;;;;6209826;23;20178;-86
2023/10/30 08:58:42;;;;;;;2.92;0.52;;;21.50;69.60;;;;;;6207724;23;20173;-86
2023/10/30 09:01:11;;;;;;;3.30;1.40;;;21.60;69.50;;;;;;6208805;23;20171;-85
2023/10/30 09:03:41;;;;;;;1.23;1.13;;;21.60;68.30;;;;;;6208909;23;20640;-85
2023/10/30 09:06:10;;;;;;;1.08;0.95;;;21.70;68.30;;;;;;6209847;23;20199;-85
2023/10/30 09:08:39;;;;;;;3.22;0.93;;;21.80;68.70;;;;;;6207974;23;20174;-85
2023/10/30 09:11:07;;;;;;;1.83;1.23;;;21.90;68.80;;;;;;6209290;23;20561;-85
2023/10/30 09:13:36;;;;;;;0.68;0.68;;;22.00;67.80;;;;;;6208217;23;20179;-85
2023/10/30 09:16:05;;;;;;;1.30;0.50;;;22.00;67.70;;;;;;6208715;23;20167;-84
2023/10/30 09:18:34;;;;;;;2.90;1.27;;;22.10;67.50;;;;;;6208502;23;20178;-85
2023/10/30 09:21:05;;;;;;;2.70;1.85;;;22.20;67.20;;;;;;6208859;23;20600;-85
2023/10/30 09:23:34;;;;;;;4.75;0.77;;;22.20;66.10;;;;;;6214326;23;20167;-84
2023/10/30 09:26:03;;;;;;;0.65;0.65;;;22.30;66.10;;;;;;6215564;23;20183;-86
2023/10/30 09:28:33;;;;;;;0.82;0.82;;;22.40;65.80;;;;;;6213733;23;20161;-86
2023/10/30 09:31:01;;;;;;;0.47;0.47;;;22.50;66.30;;;;;;6212676;23;20497;-86
2023/10/30 09:33:30;;;;;;;1.88;1.08;;;22.60;66.80;;;;;;6212725;23;20163;-87
2023/10/30 09:35:58;;;;;;;2.22;1.75;;;22.60;66.00;;;;;;6213916;23;20250;-85
2023/10/30 09:38:28;;;;;;;2.15;1.25;;;22.70;65.40;;;;;;6217507;23;20163;-84
2023/10/30 09:41:06;;;;;;;0.50;0.50;;;22.70;64.50;;;;;;6212980;23;20167;-86
2023/10/30 09:43:37;;;;;;;0.57;0.52;;;22.80;64.10;;;;;;6212734;23;20237;-87
2023/10/30 09:46:06;;;;;;;0.95;0.50;;;22.90;64.10;;;;;;6213018;23;20171;-88
2023/10/30 09:48:38;;;;;;;1.80;0.70;;;22.90;64.40;;;;;;6186186;23;20250;-87
2023/10/30 09:51:09;;;;;;;1.35;0.98;;;23.00;64.50;;;;;;6213263;23;20159;-87
2023/10/30 09:53:42;;;;;;;1.08;0.98;;;23.00;63.80;;;;;;6213416;23;20720;-86
2023/10/30 09:56:12;;;;;;;0.40;0.40;;;23.10;63.40;;;;;;6212016;23;20194;-87
2023/10/30 09:58:41;;;;;;;0.47;0.47;;;23.20;63.90;;;;;;6212578;23;20170;-87
2023/10/30 10:01:09;;;;;;;1.63;0.95;;;23.30;64.10;;;;;;6207404;23;20182;-86
2023/10/30 10:03:39;;;;;;;1.75;1.05;;;23.30;64.40;;;;;;6210325;23;20168;-85
2023/10/30 10:06:10;;;;;;;1.20;0.95;;;23.40;63.00;;;;;;6210862;23;20171;-85
2023/10/30 10:08:43;;;;;;;0.63;0.63;;;23.40;62.60;;;;;;6210519;23;20187;-87
2023/10/30 10:11:12;;;;;;;2.95;1.02;;;23.50;62.50;;;;;;6210057;23;20171;-87
2023/10/30 10:13:48;;;;;;;1.73;0.70;;;23.60;63.20;;;;;;6212137;23;20198;-86
2023/10/30 10:16:32;;;;;;;1.15;1.05;;;23.60;62.80;;;;;;6214079;23;20532;-85
2023/10/30 10:19:19;;;;;;;0.82;0.82;;;23.60;62.40;;;;;;6214889;23;20167;-84
2023/10/30 10:21:50;;;;;;;1.95;1.30;;;23.70;61.90;;;;;;6214636;23;20205;-84
2023/10/30 10:24:37;;;;;;;1.88;1.08;;;23.80;62.30;;;;;;6212012;23;20225;-83
2023/10/30 10:27:06;;;;;;;1.13;0.85;;;23.90;62.50;;;;;;6211930;23;20179;-83
2023/10/30 10:29:35;;;;;;;0.28;0.28;;;23.90;62.90;;;;;;6212982;23;20242;-83
2023/10/30 10:32:05;;;;;;;0.50;0.50;;;24.00;62.80;;;;;;6213211;23;20234;-83
2023/10/30 10:34:34;;;;;;;0.43;0.40;;;24.10;63.20;;;;;;6209750;23;20210;-85
2023/10/30 10:37:03;;;;;;;0.50;0.50;;;24.20;62.50;;;;;;6206891;23;20175;-83
2023/10/30 10:42:35;;;;;;;0.40;0.40;;;24.30;62.50;;;;;;5140009;27;20276;-85
2023/10/30 10:45:06;;;;;;;10.05;2.05;;;24.30;59.90;;;;;;5105213;28;20207;-85
2023/10/30 10:47:35;;;;;;;0.82;0.68;;;24.40;60.00;;;;;;5117121;28;20803;-83
2023/10/30 10:50:04;;;;;;;0.70;0.65;;;24.50;60.80;;;;;;5116425;28;20219;-82
2023/10/30 10:52:34;;;;;;;1.02;0.77;;;24.50;61.00;;;;;;5120480;28;20341;-84
2023/10/30 10:55:05;;;;;;;0.57;0.57;;;24.60;61.20;;;;;;5115661;28;20197;-83
2023/10/30 10:57:45;;;;;;;0.75;0.68;;;24.60;60.50;;;;;;5115440;28;20228;-84
2023/10/30 11:00:15;;;;;;;1.02;0.93;;;24.70;59.70;;;;;;5118807;28;20297;-84
2023/10/30 11:02:48;;;;;;;4.22;1.08;;;24.70;60.50;;;;;;5119393;28;20224;-84
2023/10/30 11:05:17;;;;;;;0.77;0.55;;;24.80;60.10;;;;;;5117424;28;20197;-84
2023/10/30 11:07:52;;;;;;;0.60;0.60;;;24.80;59.70;;;;;;5111566;28;20710;-83
2023/10/30 11:10:28;;;;;;;0.40;0.38;;;24.80;59.80;;;;;;5120217;28;20203;-86
2023/10/30 11:13:11;;;;;;;0.88;0.88;;;24.80;58.90;;;;;;5121667;28;20736;-84
2023/10/30 11:15:46;;;;;;;0.45;0.45;;;24.90;59.00;;;;;;5121349;28;20666;-84
2023/10/30 11:18:18;;;;;;;1.92;1.55;;;24.90;59.20;;;;;;5117703;28;21334;-85
2023/10/30 11:20:48;;;;;;;7.20;0.95;;;25.00;58.90;;;;;;5118443;28;20607;-85
2023/10/30 11:23:48;;;;;;;1.92;1.17;;;25.00;58.50;;;;;;5116546;28;20305;-85
2023/10/30 11:26:38;;;;;;;0.60;0.40;;;25.10;58.80;;;;;;5121140;28;20283;-86
2023/10/30 11:29:16;;;;;;;0.88;0.85;;;25.10;58.70;;;;;;5121302;28;20203;-85
2023/10/30 11:31:59;;;;;;;0.63;0.60;;;25.20;58.00;;;;;;5118086;28;20296;-85
2023/10/30 11:34:35;;;;;;;0.85;0.85;;;25.20;57.60;;;;;;5111947;28;20612;-85
2023/10/30 11:37:12;;;;;;;1.35;1.05;;;25.30;57.50;;;;;;5117821;28;20237;-85
2023/10/30 11:39:43;;;;;;;0.52;0.43;;;25.30;57.10;;;;;;5109698;28;20237;-84
2023/10/30 11:42:39;;;;;;;0.40;0.40;;;25.30;56.80;;;;;;5115792;28;20254;-87
2023/10/30 11:45:24;;;;;;;0.52;0.52;;;25.40;56.10;;;;;;5101305;28;20220;-85
2023/10/30 11:48:02;;;;;;;3.05;0.55;;;25.40;56.40;;;;;;5122037;28;20189;-85
2023/10/30 11:50:34;;;;;;;0.50;0.50;;;25.50;57.00;;;;;;5124037;28;20188;-85
2023/10/30 11:53:08;;;;;;;0.20;0.20;;;25.60;57.10;;;;;;5098260;28;20190;-86
2023/10/30 11:55:38;;;;;;;1.30;0.50;;;25.60;56.60;;;;;;5102655;28;20200;-86
2023/10/30 11:58:08;;;;;;;1.05;0.82;;;25.70;56.50;;;;;;5111949;28;20645;-85
2023/10/30 12:00:44;;;;;;;0.70;0.40;;;25.70;56.10;;;;;;5113429;28;20547;-85
2023/10/30 12:03:13;;;;;;;0.98;0.65;;;25.80;56.00;;;;;;5102277;28;21097;-85
2023/10/30 12:05:42;;;;;;;1.33;1.00;;;25.80;55.10;;;;;;5107039;28;20193;-83
2023/10/30 12:08:11;;;;;;;1.08;0.50;;;25.80;54.20;;;;;;5104758;28;20197;-85
2023/10/30 12:10:39;;;;;;;1.17;0.55;;;25.90;54.00;;;;;;5111530;28;20205;-85
2023/10/30 12:13:10;;;;;;;0.38;0.25;;;25.90;54.10;;;;;;5105849;28;20221;-84
2023/10/30 12:15:40;;;;;;;0.30;0.30;;;25.90;53.20;;;;;;5107396;28;20211;-85
2023/10/30 12:18:10;;;;;;;0.85;0.40;;;26.00;53.60;;;;;;5109785;28;20195;-84
2023/10/30 12:20:39;;;;;;;0.50;0.30;;;26.00;54.00;;;;;;5108452;28;20201;-85
2023/10/30 12:23:11;;;;;;;0.60;0.40;;;26.10;54.10;;;;;;5099250;28;20221;-85
2023/10/30 12:25:41;;;;;;;0.73;0.60;;;26.10;53.80;;;;;;5108725;28;20193;-85
2023/10/30 12:28:09;;;;;;;3.40;0.40;;;26.20;53.50;;;;;;5106838;28;20703;-85
2023/10/30 12:30:38;;;;;;;0.63;0.60;;;26.20;52.80;;;;;;5106913;28;20258;-84
2023/10/30 12:33:13;;;;;;;0.50;0.50;;;26.20;52.90;;;;;;5104501;28;20189;-85
2023/10/30 12:35:42;;;;;;;2.58;1.15;;;26.30;52.60;;;;;;5101651;28;20220;-84
2023/10/30 12:38:14;;;;;;;0.95;0.80;;;26.40;53.10;;;;;;5105220;28;20280;-84
2023/10/30 12:40:46;;;;;;;0.40;0.40;;;26.40;53.50;;;;;;5100566;28;20283;-85
2023/10/30 12:43:15;;;;;;;0.47;0.47;;;26.50;53.40;;;;;;5095469;28;20224;-85
2023/10/30 12:45:43;;;;;;;0.20;0.20;;;26.50;52.40;;;;;;5106526;28;20189;-85
2023/10/30 12:48:13;;;;;;;0.40;0.40;;;26.50;52.10;;;;;;5106591;28;20197;-85
2023/10/30 12:50:43;;;;;;;3.92;0.40;;;26.60;52.80;;;;;;5102524;28;20228;-85
2023/10/30 12:53:11;;;;;;;0.35;0.30;;;26.60;52.20;;;;;;5106812;28;20242;-85
2023/10/30 12:55:41;;;;;;;2.50;0.68;;;26.70;52.30;;;;;;5107285;28;20197;-86
2023/10/30 12:58:09;;;;;;;0.82;0.80;;;26.80;52.20;;;;;;5098436;28;20197;-84
2023/10/30 13:00:38;;;;;;;0.40;0.40;;;26.80;50.50;;;;;;5109489;28;20185;-85
2023/10/30 13:03:07;;;;;;;0.20;0.20;;;26.90;51.00;;;;;;5105506;28;20217;-85
2023/10/30 13:05:37;;;;;;;0.30;0.30;;;27.00;51.70;;;;;;5105480;28;20197;-85
2023/10/30 13:08:05;;;;;;;0.38;0.38;;;27.10;52.20;;;;;;5103779;28;20197;-86
2023/10/30 13:10:34;;;;;;;0.40;0.40;;;27.10;50.90;;;;;;5103490;28;20190;-85
2023/10/30 13:13:03;;;;;;;2.50;0.85;;;27.20;50.60;;;;;;5096040;28;20589;-84